Last 24 Hours

Coyote Canyon

10 Minute Data | America/Los_Angeles
as of 5/4/26 9:11 PM PDT
Date & Time Temp (°F) Dew Pt (°F) RH (%) Wind Spd (mph) Wind Dir (°) Wind Gust (mph) Wind Gst Dir (°) Daily Max Temp (°F) Daily Min Temp (°F)
5/4/26 - 2110 44.1 42.0 92 19.4 W | 270 27.1 W | 279 53.6 41.9
5/4/26 - 2100 44.2 41.9 92 22.6 W | 263 33.7 W | 259 53.6 41.9
5/4/26 - 2050 44.4 42.2 92 23.6 W | 263 33.0 W | 272 53.6 41.9
5/4/26 - 2040 44.8 42.4 91 22.8 WSW | 253 32.7 W | 260 53.6 41.9
5/4/26 - 2030 45.0 42.6 91 22.1 W | 269 33.4 WNW | 284 53.6 41.9
5/4/26 - 2020 45.1 42.8 91 20.8 W | 270 28.7 W | 276 53.6 41.9
5/4/26 - 2010 45.4 42.6 90 22.2 W | 264 36.5 W | 275 53.6 41.9
5/4/26 - 2000 45.5 42.5 89 24.6 W | 261 33.2 W | 259 53.6 41.9
5/4/26 - 1950 45.7 42.2 87 23.8 W | 264 34.4 W | 263 53.6 41.9
5/4/26 - 1940 46.0 42.0 86 24.9 W | 260 38.4 W | 266 53.6 41.9
5/4/26 - 1930 46.3 41.8 84 26.4 WSW | 248 35.4 W | 264 53.6 41.9
5/4/26 - 1920 46.6 41.6 83 27.3 W | 265 37.8 W | 268 53.6 41.9
5/4/26 - 1910 47.2 41.6 81 23.7 W | 260 35.2 WNW | 285 53.6 41.9
5/4/26 - 1900 47.8 41.6 79 24.2 W | 263 33.5 W | 268 53.6 41.9
5/4/26 - 1850 48.4 41.7 77 27.2 W | 263 35.7 WSW | 248 53.6 41.9
5/4/26 - 1840 49.1 41.7 75 24.0 WSW | 258 33.4 W | 264 53.6 41.9
5/4/26 - 1830 49.6 41.2 73 25.6 WSW | 257 33.6 WSW | 258 53.6 41.9
5/4/26 - 1820 49.9 41.2 72 23.0 W | 267 34.0 W | 262 53.6 41.9
5/4/26 - 1810 50.3 41.7 72 25.0 W | 261 37.2 WSW | 252 53.6 41.9
5/4/26 - 1800 50.2 41.5 72 25.4 W | 264 34.8 W | 264 53.6 41.9
5/4/26 - 1750 49.9 41.9 74 23.0 SW | 232 32.8 SW | 230 53.6 41.9
5/4/26 - 1740 49.9 41.5 73 24.4 W | 264 34.5 WSW | 258 53.6 41.9
5/4/26 - 1730 50.0 41.2 72 26.9 W | 261 36.0 SW | 216 53.6 41.9
5/4/26 - 1720 50.2 41.1 71 25.5 W | 261 36.2 W | 266 53.6 41.9
5/4/26 - 1710 50.2 41.1 71 25.3 W | 264 34.5 WSW | 254 53.6 41.9
5/4/26 - 1700 51.0 40.9 68 22.8 W | 260 34.5 WSW | 239 53.6 41.9
5/4/26 - 1650 50.9 40.7 68 25.4 W | 262 35.6 W | 271 53.6 41.9
5/4/26 - 1640 51.7 40.3 65 22.9 WSW | 252 32.7 SW | 235 53.6 41.9
5/4/26 - 1630 51.8 40.0 64 24.6 WSW | 256 33.8 W | 274 53.6 41.9
5/4/26 - 1620 51.4 40.0 65 24.4 W | 266 35.1 W | 269 53.6 41.9
5/4/26 - 1610 51.4 39.7 64 26.2 W | 276 36.2 W | 281 53.6 41.9
5/4/26 - 1600 51.1 39.7 65 26.8 WNW | 287 37.5 W | 276 53.6 41.9
5/4/26 - 1550 51.5 39.4 63 26.1 WSW | 253 37.6 WNW | 283 53.6 41.9
5/4/26 - 1540 52.1 38.6 60 25.4 WSW | 245 37.2 WSW | 238 53.6 41.9
5/4/26 - 1530 52.8 38.4 58 24.0 W | 270 36.3 W | 266 53.6 41.9
5/4/26 - 1520 52.1 39.2 61 26.5 W | 272 35.8 W | 268 53.6 41.9
5/4/26 - 1510 52.0 39.9 63 21.4 W | 271 30.3 W | 266 53.6 41.9
5/4/26 - 1500 51.1 39.5 64 23.2 W | 272 30.5 W | 273 53.6 41.9
5/4/26 - 1450 51.3 39.2 63 24.2 W | 273 36.2 W | 264 53.6 41.9
5/4/26 - 1440 51.1 38.8 63 26.9 W | 278 36.1 WNW | 286 53.6 41.9
5/4/26 - 1430 50.8 39.3 64 25.5 W | 273 36.4 W | 264 53.6 41.9
5/4/26 - 1420 51.5 39.1 63 25.6 W | 277 34.6 WSW | 258 53.6 41.9
5/4/26 - 1410 51.9 38.7 61 22.8 WNW | 290 34.5 WNW | 287 53.6 41.9
5/4/26 - 1400 52.4 37.6 57 22.8 W | 274 35.7 W | 268 53.6 41.9
5/4/26 - 1350 51.6 37.0 57 19.7 W | 260 28.7 W | 268 53.1 41.9
5/4/26 - 1340 51.4 37.7 59 21.5 W | 278 31.9 WSW | 256 52.5 41.9
5/4/26 - 1330 50.8 37.9 61 24.8 WSW | 245 35.2 WNW | 284 51.4 41.9
5/4/26 - 1320 50.2 38.6 64 21.0 W | 266 31.9 W | 266 50.9 41.9
5/4/26 - 1310 49.7 38.7 66 23.4 WNW | 287 33.5 W | 272 50.6 41.9
5/4/26 - 1300 49.8 38.4 65 18.5 W | 273 28.1 WNW | 288 50.6 41.9
5/4/26 - 1250 49.4 38.4 66 19.6 W | 278 26.4 WNW | 294 50.5 41.9
5/4/26 - 1240 49.2 38.3 66 21.6 WSW | 254 32.7 SW | 222 50.3 41.9
5/4/26 - 1230 49.6 37.6 63 18.0 W | 275 30.1 W | 271 50.3 41.9
5/4/26 - 1220 48.5 37.3 65 21.5 WNW | 290 31.9 WNW | 302 49.1 41.9
5/4/26 - 1210 48.2 37.2 65 22.8 WNW | 293 29.4 WNW | 295 49.1 41.9
5/4/26 - 1200 47.6 38.1 70 22.8 WNW | 288 30.2 WNW | 298 49.1 41.9
5/4/26 - 1150 48.1 37.9 68 18.6 WNW | 282 29.5 W | 280 49.1 41.9
5/4/26 - 1140 48.7 37.1 64 19.8 W | 273 28.8 WNW | 298 49.1 41.9
5/4/26 - 1130 48.1 37.9 67 19.0 W | 262 30.0 WSW | 244 49.0 41.9
5/4/26 - 1120 47.5 37.7 69 19.6 SW | 234 29.4 WSW | 238 48.3 41.9
5/4/26 - 1110 47.4 37.8 69 19.7 SW | 228 28.6 SW | 215 48.1 41.9
5/4/26 - 1100 46.8 37.3 69 22.2 SW | 231 30.5 SW | 234 48.1 41.9
5/4/26 - 1050 47.4 37.5 68 19.2 WSW | 243 26.7 SW | 223 48.1 41.9
5/4/26 - 1040 46.6 37.2 69 20.5 WSW | 244 30.3 WSW | 240 47.0 41.9
5/4/26 - 1030 46.4 37.3 70 20.2 WSW | 246 28.1 WSW | 240 46.8 41.9
5/4/26 - 1020 45.6 37.3 73 22.5 WSW | 251 31.1 WSW | 251 46.2 41.9
5/4/26 - 1010 45.4 37.6 74 22.0 WSW | 254 30.4 WSW | 254 46.0 41.9
5/4/26 - 1000 45.7 37.3 72 20.5 WSW | 258 28.0 WSW | 253 46.0 41.9
5/4/26 - 0950 44.7 37.4 75 22.2 W | 267 30.5 W | 264 45.4 41.9
5/4/26 - 0940 44.3 38.6 80 21.4 WSW | 257 30.5 W | 269 44.4 41.9
5/4/26 - 0930 44.0 39.3 83 21.1 WSW | 258 29.9 WSW | 248 44.3 41.9
5/4/26 - 0920 44.2 39.4 83 19.8 W | 260 27.5 WSW | 257 44.3 41.9
5/4/26 - 0910 43.6 39.9 87 21.5 W | 262 28.8 W | 264 43.8 41.9
5/4/26 - 0900 43.5 40.0 87 19.7 W | 262 29.1 W | 271 43.8 41.9
5/4/26 - 0850 43.6 40.0 87 18.6 WSW | 257 25.7 WSW | 257 43.8 41.9
5/4/26 - 0840 43.2 40.0 88 17.9 WSW | 253 26.4 WSW | 256 43.8 41.9
5/4/26 - 0830 43.1 39.6 88 19.5 WSW | 251 27.2 W | 263 43.8 41.9
5/4/26 - 0820 42.7 40.1 90 19.3 WSW | 253 26.8 WSW | 252 43.8 41.9
5/4/26 - 0810 42.4 40.0 91 21.1 WSW | 258 28.9 W | 272 43.8 41.9
5/4/26 - 0800 42.4 40.2 92 19.2 W | 260 27.8 W | 264 43.8 41.9
5/4/26 - 0750 42.1 40.5 94 21.0 WSW | 257 29.0 WSW | 251 43.8 41.9
5/4/26 - 0740 41.9 40.4 94 21.8 W | 262 29.0 W | 261 43.8 41.9
5/4/26 - 0730 42.1 40.8 95 22.5 W | 259 30.8 WSW | 255 43.8 41.9
5/4/26 - 0720 42.2 40.8 94 22.7 WSW | 257 28.9 WSW | 246 43.8 42.2
5/4/26 - 0710 42.2 41.1 96 23.0 W | 270 30.6 W | 266 43.8 42.2
5/4/26 - 0700 42.5 41.3 96 24.6 W | 279 32.4 W | 275 43.8 42.4
5/4/26 - 0650 42.5 41.3 95 23.9 W | 268 31.1 WSW | 251 43.8 42.4
5/4/26 - 0640 42.5 41.3 96 22.6 W | 266 31.9 W | 265 43.8 42.5
5/4/26 - 0630 42.5 41.5 96 21.7 W | 271 30.7 W | 278 43.8 42.5
5/4/26 - 0620 42.6 41.4 96 22.7 W | 279 29.3 WNW | 287 43.8 42.5
5/4/26 - 0610 42.6 41.4 95 22.8 W | 275 30.0 W | 275 43.8 42.5
5/4/26 - 0600 42.6 41.5 96 21.7 W | 279 29.7 W | 278 43.8 42.6
5/4/26 - 0550 42.6 41.6 96 19.2 WNW | 286 27.0 WNW | 291 43.8 42.6
5/4/26 - 0540 42.8 41.6 96 21.0 WNW | 282 28.1 WNW | 288 43.8 42.6
5/4/26 - 0530 42.9 41.7 96 20.6 WNW | 283 29.3 W | 271 43.8 42.8
5/4/26 - 0520 42.9 41.7 96 21.2 WNW | 282 29.2 WNW | 292 43.8 42.8
5/4/26 - 0510 42.9 41.4 95 22.9 W | 281 30.2 W | 273 43.8 42.8
5/4/26 - 0500 42.9 41.3 94 21.3 WNW | 284 30.2 WNW | 283 43.8 42.8
5/4/26 - 0450 42.9 41.2 94 20.9 WNW | 285 30.9 WNW | 282 43.8 42.8
5/4/26 - 0440 43.1 41.6 95 23.2 WNW | 287 30.5 W | 281 43.8 42.9
5/4/26 - 0430 43.1 41.6 94 21.5 WNW | 288 28.6 WNW | 288 43.8 42.9
5/4/26 - 0420 43.0 41.5 94 21.2 WNW | 294 27.2 WNW | 285 43.8 42.9
5/4/26 - 0410 43.0 41.5 94 20.4 WNW | 290 27.0 W | 281 43.8 42.9
5/4/26 - 0400 43.2 41.4 93 21.2 WNW | 289 28.1 WNW | 284 43.8 43.0
5/4/26 - 0350 43.2 41.2 93 21.6 WNW | 288 29.3 WNW | 284 43.8 43.0
5/4/26 - 0340 43.1 40.9 92 23.3 WNW | 289 31.9 WNW | 286 43.8 43.0
5/4/26 - 0330 43.1 40.5 91 24.6 WNW | 290 32.6 WNW | 298 43.8 43.0
5/4/26 - 0320 43.2 40.5 90 21.5 WNW | 286 30.2 W | 277 43.8 43.0
5/4/26 - 0310 43.2 40.2 89 20.3 WNW | 288 26.9 WNW | 290 43.8 43.0
5/4/26 - 0300 43.2 40.2 89 20.8 WNW | 288 26.7 WNW | 289 43.8 43.0
5/4/26 - 0250 43.3 40.7 90 22.0 WNW | 291 28.7 WNW | 289 43.8 43.0
5/4/26 - 0240 43.3 41.1 92 22.6 WNW | 296 29.2 WNW | 293 43.8 43.0
5/4/26 - 0230 43.2 41.4 93 21.6 WNW | 290 28.4 WNW | 289 43.8 43.0
5/4/26 - 0220 43.0 41.2 93 25.5 WNW | 292 35.1 WNW | 299 43.8 43.0
5/4/26 - 0210 43.1 41.5 94 24.6 WNW | 290 35.2 NW | 306 43.8 43.0
5/4/26 - 0200 43.3 41.4 93 25.9 WNW | 290 34.6 WNW | 286 43.8 43.2
5/4/26 - 0150 43.6 41.5 92 22.9 WNW | 292 32.5 WNW | 285 43.8 43.3
5/4/26 - 0140 43.7 40.2 87 18.3 WNW | 295 25.1 WNW | 295 43.8 43.3
5/4/26 - 0130 43.7 40.2 88 16.4 WNW | 296 27.1 WNW | 293 43.8 43.3
5/4/26 - 0120 43.5 41.7 93 16.7 WNW | 300 25.3 NW | 305 43.7 43.3
5/4/26 - 0110 43.6 41.6 93 17.4 WNW | 302 24.6 WNW | 295 43.7 43.5
5/4/26 - 0100 43.7 41.3 91 21.3 WNW | 295 30.0 WNW | 292 70.3 43.3
5/4/26 - 0050 44.0 40.3 87 19.9 WNW | 291 28.1 WNW | 298 70.3 43.3
5/4/26 - 0040 44.1 40.2 86 17.8 WNW | 283 25.6 WNW | 290 70.3 43.3
5/4/26 - 0030 44.2 40.1 85 20.8 WNW | 284 31.2 W | 264 70.3 43.3
5/4/26 - 0020 44.1 39.5 84 22.4 WNW | 286 29.4 WNW | 286 70.3 43.3
5/4/26 - 0010 44.0 40.0 86 21.0 WNW | 290 28.6 WNW | 284 70.3 43.3
5/4/26 - 0000 43.9 41.1 90 21.1 WNW | 287 30.0 WNW | 291 70.3 43.3
5/3/26 - 2350 43.8 41.4 91 23.5 WNW | 285 33.8 WNW | 288 70.3 43.3
5/3/26 - 2340 43.8 41.8 93 24.7 WNW | 284 33.4 WNW | 284 70.3 43.3
5/3/26 - 2330 43.7 41.9 93 22.0 WNW | 286 30.2 WNW | 287 70.3 43.3
5/3/26 - 2320 43.7 41.9 93 22.8 WNW | 290 29.9 WNW | 282 70.3 43.3
5/3/26 - 2310 43.8 41.9 93 22.2 WNW | 285 30.2 WNW | 286 70.3 43.3
5/3/26 - 2300 43.7 42.2 94 18.8 WNW | 285 28.6 W | 278 70.3 43.3
5/3/26 - 2250 43.6 42.4 95 18.4 WNW | 287 26.3 WNW | 295 70.3 43.3
5/3/26 - 2240 43.6 42.6 96 20.7 WNW | 286 30.8 W | 274 70.3 43.3
5/3/26 - 2230 43.5 42.7 97 22.8 WNW | 288 30.3 WNW | 289 70.3 43.3
5/3/26 - 2220 43.4 42.7 97 20.3 WNW | 290 29.7 WNW | 283 70.3 43.3
5/3/26 - 2210 43.5 42.8 98 20.5 WNW | 290 28.5 WNW | 289 70.3 43.5
5/3/26 - 2200 43.6 42.9 97 21.0 WNW | 291 28.0 WNW | 286 70.3 43.6
5/3/26 - 2150 43.8 43.0 97 20.4 WNW | 292 28.1 WNW | 288 70.3 43.7
5/3/26 - 2140 44.1 43.3 97 18.2 WNW | 286 26.4 W | 279 70.3 44.0
5/3/26 - 2130 44.2 43.3 97 18.0 WNW | 284 25.2 WNW | 282 70.3 44.2
5/3/26 - 2120 44.5 43.6 96 16.5 W | 277 23.5 W | 269 70.3 44.4
5/3/26 - 2110 44.7 43.5 96 17.7 WNW | 282 25.6 W | 279 70.3 44.5
Max 52.8 43.6 98 27.3 - 38.4 - 70.3 44.5
Avg 45.9 40.5 82 22.0 - 30.9 - - -
Min 41.9 37.0 57 16.4 - 23.5 - 43.7 41.9